Time;durP1;ratioP1;P1;durP2;ratioP2;P2;SDS_P1;SDS_P2;PMS_P1;PMS_P2;Temp;Humidity;BMP_temperature;BMP_pressure;BME280_temperature;BME280_humidity;BME280_pressure;Samples;Min_cycle;Max_cycle;Signal;HPM_P1;HPM_P2
2023/06/17 00:00:12;;;;;;;6.68;4.80;;;;;;;15.86;100.00;101619.00;5202123;28;20104;-70
2023/06/17 00:02:43;;;;;;;10.68;5.65;;;;;;;15.89;100.00;101617.81;5201748;28;20071;-69
2023/06/17 00:05:13;;;;;;;9.15;5.75;;;;;;;15.90;100.00;101612.22;5202088;28;20110;-69
2023/06/17 00:07:44;;;;;;;13.88;5.90;;;;;;;15.85;100.00;101616.50;5200310;28;20471;-69
2023/06/17 00:10:14;;;;;;;10.65;5.72;;;;;;;15.77;100.00;101615.53;5202327;28;20395;-69
2023/06/17 00:12:45;;;;;;;10.38;6.03;;;;;;;15.64;100.00;101615.31;5201784;28;20033;-69
2023/06/17 00:15:16;;;;;;;10.40;6.22;;;;;;;15.53;100.00;101613.84;5205213;28;20087;-69
2023/06/17 00:17:49;;;;;;;8.80;6.15;;;;;;;15.42;100.00;101611.56;5205108;28;20032;-69
2023/06/17 00:20:23;;;;;;;10.95;6.88;;;;;;;15.33;100.00;101609.09;5205605;28;20087;-69
2023/06/17 00:22:53;;;;;;;10.57;5.68;;;;;;;15.23;100.00;101612.00;5205384;28;20029;-69
2023/06/17 00:25:24;;;;;;;13.88;6.15;;;;;;;15.17;100.00;101605.47;5205067;28;20025;-69
2023/06/17 00:27:54;;;;;;;15.48;6.15;;;;;;;15.15;100.00;101602.06;5204806;28;20507;-69
2023/06/17 00:30:25;;;;;;;11.00;5.75;;;;;;;15.12;100.00;101602.44;5205498;28;20028;-69
2023/06/17 00:32:55;;;;;;;8.77;5.75;;;;;;;15.07;100.00;101602.13;5205276;28;20033;-69
2023/06/17 00:35:26;;;;;;;10.30;5.78;;;;;;;15.04;100.00;101599.78;5205285;28;20394;-70
2023/06/17 00:37:56;;;;;;;9.27;5.57;;;;;;;14.99;100.00;101594.91;5204368;28;20122;-69
2023/06/17 00:40:26;;;;;;;8.52;5.78;;;;;;;14.88;100.00;101599.88;5205358;28;20040;-69
2023/06/17 00:42:57;;;;;;;10.65;6.10;;;;;;;14.73;100.00;101600.59;5205512;28;20033;-69
2023/06/17 00:45:28;;;;;;;9.02;5.50;;;;;;;14.67;100.00;101598.63;5205180;28;20025;-69
2023/06/17 00:47:59;;;;;;;10.57;5.30;;;;;;;14.67;100.00;101595.06;5204360;28;20022;-69
2023/06/17 00:50:29;;;;;;;8.50;5.38;;;;;;;14.68;100.00;101594.88;5204955;28;20038;-69
2023/06/17 00:53:00;;;;;;;12.80;6.03;;;;;;;14.73;100.00;101600.59;5204944;28;20040;-69
2023/06/17 00:55:35;;;;;;;11.23;4.93;;;;;;;14.74;100.00;101601.44;5204857;28;20466;-69
2023/06/17 00:58:06;;;;;;;12.80;5.63;;;;;;;14.75;100.00;101609.38;5203266;28;20029;-69
2023/06/17 01:00:36;;;;;;;13.07;6.18;;;;;;;14.73;100.00;101600.59;5204996;28;20027;-69
2023/06/17 01:03:07;;;;;;;11.82;5.63;;;;;;;14.65;100.00;101600.63;5205221;28;20596;-69
2023/06/17 01:05:38;;;;;;;16.17;6.65;;;;;;;14.53;100.00;101604.72;5204778;28;20036;-69
2023/06/17 01:08:33;;;;;;;16.15;6.55;;;;;;;14.39;100.00;101598.16;5204984;28;20053;-69
2023/06/17 01:11:22;;;;;;;12.18;6.05;;;;;;;14.28;100.00;101589.59;5204533;28;20037;-69
2023/06/17 01:13:55;;;;;;;9.18;5.85;;;;;;;14.28;100.00;101589.59;5204503;28;20387;-69
2023/06/17 01:16:28;;;;;;;9.73;5.25;;;;;;;14.32;100.00;101594.47;5204181;28;20028;-69
2023/06/17 01:18:59;;;;;;;11.63;5.60;;;;;;;14.37;100.00;101594.81;5204381;28;20033;-69
2023/06/17 01:21:31;;;;;;;8.73;5.95;;;;;;;14.38;100.00;101593.78;5204372;28;20033;-69
2023/06/17 01:24:03;;;;;;;13.80;6.30;;;;;;;14.36;100.00;101594.97;5204450;28;20025;-68
2023/06/17 01:26:34;;;;;;;10.57;5.80;;;;;;;14.32;100.00;101588.25;5203008;28;20025;-69
2023/06/17 01:29:07;;;;;;;17.88;6.80;;;;;;;14.25;100.00;101585.38;5204616;28;20108;-70
2023/06/17 01:31:38;;;;;;;9.63;6.10;;;;;;;14.15;100.00;101588.25;5204693;28;20033;-69
2023/06/17 01:34:09;;;;;;;11.00;6.28;;;;;;;14.05;100.00;101589.44;5204238;28;20030;-69
2023/06/17 01:36:40;;;;;;;14.50;6.05;;;;;;;14.00;100.00;101585.41;5204001;28;20025;-69
2023/06/17 01:39:15;;;;;;;12.95;6.30;;;;;;;14.06;100.00;101591.16;5204179;28;20035;-69
2023/06/17 01:41:49;;;;;;;13.55;6.25;;;;;;;14.00;100.00;101587.25;5204589;28;20395;-69
2023/06/17 01:44:23;;;;;;;11.82;5.32;;;;;;;13.91;100.00;101581.06;5204248;28;20528;-69
2023/06/17 01:46:54;;;;;;;10.55;5.72;;;;;;;13.91;100.00;101591.00;5203819;28;20022;-69
2023/06/17 01:49:25;;;;;;;11.27;5.85;;;;;;;13.96;100.00;101596.75;5204534;28;20021;-69
2023/06/17 01:51:55;;;;;;;8.10;5.25;;;;;;;13.99;100.00;101589.13;5204203;28;20021;-69
2023/06/17 01:54:27;;;;;;;12.73;5.97;;;;;;;13.91;100.00;101593.72;5204104;28;20028;-69
2023/06/17 01:56:58;;;;;;;13.90;6.22;;;;;;;13.76;100.00;101596.25;5203149;28;20017;-69
2023/06/17 01:59:29;;;;;;;15.57;6.35;;;;;;;13.59;100.00;101594.53;5203989;28;20022;-69
2023/06/17 02:02:02;;;;;;;18.05;6.93;;;;;;;13.45;100.00;101590.66;5203913;28;20471;-69
2023/06/17 02:04:49;;;;;;;12.40;5.95;;;;;;;13.36;100.00;101591.66;5204103;28;20135;-69
2023/06/17 02:07:25;;;;;;;11.02;5.82;;;;;;;13.33;100.00;101595.53;5202999;28;20367;-69
2023/06/17 02:09:56;;;;;;;9.90;5.45;;;;;;;13.33;100.00;101594.69;5203993;28;20033;-69
2023/06/17 02:12:27;;;;;;;11.60;5.70;;;;;;;13.36;100.00;101592.50;5203781;28;20033;-69
2023/06/17 02:14:57;;;;;;;7.47;5.32;;;;;;;13.50;100.00;101590.16;5203986;28;20047;-69
2023/06/17 02:17:28;;;;;;;15.10;6.65;;;;;;;13.45;100.00;101585.25;5202867;28;20025;-69
2023/06/17 02:19:58;;;;;;;10.25;5.78;;;;;;;13.35;100.00;101589.97;5203860;28;20047;-69
2023/06/17 02:22:29;;;;;;;11.90;6.10;;;;;;;13.24;100.00;101588.44;5203446;28;20030;-69
2023/06/17 02:25:01;;;;;;;13.77;6.45;;;;;;;13.14;100.00;101588.53;5202381;28;20037;-69
2023/06/17 02:27:32;;;;;;;10.43;5.95;;;;;;;13.06;100.00;101580.47;5202885;28;20152;-69
2023/06/17 02:30:03;;;;;;;13.00;6.53;;;;;;;13.02;100.00;101572.88;5202418;28;20104;-69
2023/06/17 02:32:33;;;;;;;12.40;6.60;;;;;;;12.96;100.00;101566.28;5203223;28;20086;-69
2023/06/17 02:35:04;;;;;;;14.57;6.80;;;;;;;12.89;100.00;101562.56;5202083;28;20060;-69
2023/06/17 02:37:36;;;;;;;12.00;6.38;;;;;;;12.82;100.00;101559.69;5202382;28;20017;-69
2023/06/17 02:40:08;;;;;;;11.35;6.72;;;;;;;12.70;100.00;101556.47;5203163;28;20104;-69
2023/06/17 02:42:39;;;;;;;19.60;7.30;;;;;;;12.58;100.00;101546.13;5203281;28;20038;-69
2023/06/17 02:45:12;;;;;;;15.43;7.25;;;;;;;12.44;100.00;101545.72;5202979;28;20087;-69
2023/06/17 02:47:43;;;;;;;10.48;6.13;;;;;;;12.33;100.00;101550.56;5202237;28;20029;-69
2023/06/17 02:50:13;;;;;;;12.35;6.95;;;;;;;12.23;100.00;101542.59;5203272;28;20026;-69
2023/06/17 02:52:46;;;;;;;13.55;6.60;;;;;;;12.15;100.00;101542.59;5202931;28;20037;-69
2023/06/17 02:55:16;;;;;;;10.85;6.97;;;;;;;12.10;100.00;101544.91;5202792;28;20028;-69
2023/06/17 02:57:47;;;;;;;13.80;7.28;;;;;;;12.09;100.00;101540.50;5202349;28;20026;-69
2023/06/17 03:00:18;;;;;;;12.30;7.15;;;;;;;12.12;100.00;101532.97;5203166;28;20045;-69
2023/06/17 03:02:48;;;;;;;11.75;7.10;;;;;;;12.23;100.00;101531.00;5203009;28;20052;-69
2023/06/17 03:05:19;;;;;;;9.50;6.88;;;;;;;12.35;100.00;101532.41;5203238;28;20032;-69
2023/06/17 03:07:49;;;;;;;12.48;6.90;;;;;;;12.46;100.00;101531.28;5202057;28;20044;-69
2023/06/17 03:10:20;;;;;;;12.70;7.82;;;;;;;12.55;100.00;101530.28;5202982;28;20025;-69
2023/06/17 03:12:50;;;;;;;12.23;7.93;;;;;;;12.58;100.00;101525.44;5202962;28;20036;-69
2023/06/17 03:15:21;;;;;;;13.10;7.97;;;;;;;12.58;100.00;101522.75;5202938;28;20164;-69
2023/06/17 03:17:52;;;;;;;12.60;7.78;;;;;;;12.59;100.00;101519.03;5202213;28;20032;-69
2023/06/17 03:20:28;;;;;;;13.65;7.50;;;;;;;12.62;100.00;101524.13;5202523;28;20026;-69
2023/06/17 03:22:58;;;;;;;15.77;7.88;;;;;;;12.66;100.00;101521.94;5202661;28;20033;-69
2023/06/17 03:25:29;;;;;;;14.07;6.97;;;;;;;12.69;100.00;101527.81;5202691;28;20060;-69
2023/06/17 03:28:02;;;;;;;15.40;7.55;;;;;;;12.74;100.00;101518.41;5202272;28;20021;-69
2023/06/17 03:30:32;;;;;;;13.77;7.90;;;;;;;12.76;100.00;101528.03;5202757;28;20028;-69
2023/06/17 03:33:03;;;;;;;13.85;8.60;;;;;;;12.74;100.00;101518.41;5202368;28;20022;-69
2023/06/17 03:35:33;;;;;;;14.35;7.18;;;;;;;12.74;100.00;101521.13;5201432;28;20480;-69
2023/06/17 03:38:04;;;;;;;16.35;7.35;;;;;;;12.78;100.00;101512.53;5202160;28;20029;-69
2023/06/17 03:40:36;;;;;;;11.95;7.32;;;;;;;12.85;100.00;101520.81;5202851;28;20104;-69
2023/06/17 03:43:06;;;;;;;16.77;8.30;;;;;;;12.91;100.00;101525.56;5202598;28;20439;-69
2023/06/17 03:45:37;;;;;;;16.67;8.18;;;;;;;12.97;100.00;101527.56;5202449;28;20151;-68
2023/06/17 03:48:07;;;;;;;20.23;8.50;;;;;;;13.01;100.00;101528.94;5202317;28;20155;-69
2023/06/17 03:50:38;;;;;;;12.93;8.35;;;;;;;13.07;100.00;101530.97;5206533;28;20053;-69
2023/06/17 03:53:08;;;;;;;14.57;9.13;;;;;;;13.23;100.00;101532.88;5206618;28;20033;-69
2023/06/17 03:55:39;;;;;;;15.60;8.85;;;;;;;13.41;100.00;101533.56;5206187;28;20112;-69
2023/06/17 03:58:14;;;;;;;23.98;9.68;;;;;;;13.47;100.00;101534.72;5206169;28;20025;-69
2023/06/17 04:00:46;;;;;;;;;;;;;;;13.55;100.00;101533.88;5206774;28;20080;-69
2023/06/17 04:03:18;;;;;;;21.08;9.35;;;;;;;13.57;100.00;101535.41;5206283;28;19909;-69
2023/06/17 04:05:49;;;;;;;19.15;8.98;;;;;;;13.56;100.00;101527.50;5205609;28;20575;-69
2023/06/17 04:08:22;;;;;;;19.88;9.02;;;;;;;13.52;100.00;101526.97;5206026;28;20067;-69
2023/06/17 04:10:53;;;;;;;20.90;9.00;;;;;;;13.52;100.00;101534.22;5205972;28;20033;-69
2023/06/17 04:13:23;;;;;;;17.80;9.45;;;;;;;13.48;100.00;101529.16;5206324;28;20030;-69
2023/06/17 04:15:54;;;;;;;25.98;9.65;;;;;;;13.52;100.00;101536.94;5205373;28;20067;-69
2023/06/17 04:18:25;;;;;;;24.73;9.48;;;;;;;13.62;100.00;101537.59;5205745;28;20033;-69
2023/06/17 04:20:56;;;;;;;20.33;9.15;;;;;;;13.68;100.00;101539.59;5205796;28;20706;-69
2023/06/17 04:23:26;;;;;;;15.98;9.50;;;;;;;13.73;100.00;101543.47;5205812;28;20045;-69
2023/06/17 04:25:57;;;;;;;13.73;8.50;;;;;;;13.84;100.00;101550.38;5205355;28;20094;-69
2023/06/17 04:28:31;;;;;;;15.02;8.23;;;;;;;13.95;100.00;101549.16;5205696;28;20021;-70
2023/06/17 04:31:02;;;;;;;16.00;8.53;;;;;;;14.16;100.00;101548.66;5205791;28;20029;-69
2023/06/17 04:33:37;;;;;;;19.35;8.43;;;;;;;14.35;100.00;101556.31;5205538;28;20293;-69
2023/06/17 04:36:08;;;;;;;13.52;8.57;;;;;;;14.42;100.00;101557.31;5205160;28;20017;-69
2023/06/17 04:38:39;;;;;;;16.55;8.38;;;;;;;14.49;100.00;101557.50;5205427;28;20035;-69
2023/06/17 04:41:11;;;;;;;18.85;8.35;;;;;;;14.53;100.00;101555.28;5205630;28;20503;-69
2023/06/17 04:43:48;;;;;;;13.98;7.88;;;;;;;14.60;100.00;101557.09;5205442;28;20044;-69
2023/06/17 04:46:20;;;;;;;16.88;9.07;;;;;;;14.70;100.00;101560.44;5204956;28;20060;-69
2023/06/17 04:48:51;;;;;;;15.25;7.82;;;;;;;14.76;100.00;101558.91;5205331;28;20435;-69
2023/06/17 04:51:21;;;;;;;18.73;9.23;;;;;;;14.83;100.00;101564.44;5205419;28;20025;-69
2023/06/17 04:53:52;;;;;;;16.13;9.52;;;;;;;14.87;100.00;101563.06;5205426;28;20035;-69
2023/06/17 04:56:26;;;;;;;16.40;8.95;;;;;;;14.92;100.00;101557.97;5204633;28;20021;-69
2023/06/17 04:58:57;;;;;;;18.08;9.98;;;;;;;14.94;100.00;101553.22;5205331;28;20028;-69
2023/06/17 05:01:27;;;;;;;17.75;9.70;;;;;;;15.03;100.00;101550.31;5195573;28;20026;-69
2023/06/17 05:03:58;;;;;;;18.13;9.63;;;;;;;15.10;100.00;101553.13;5203560;28;20033;-69
2023/06/17 05:06:29;;;;;;;16.77;10.35;;;;;;;15.18;100.00;101563.91;5188009;28;20116;-69
2023/06/17 05:08:59;;;;;;;20.23;10.80;;;;;;;15.26;100.00;101561.16;5198252;28;20018;-69
2023/06/17 05:11:30;;;;;;;19.45;10.15;;;;;;;15.33;100.00;101558.56;5203935;28;20021;-69
2023/06/17 05:14:00;;;;;;;17.92;10.13;;;;;;;15.41;100.00;101545.00;5203700;28;20025;-69
2023/06/17 05:16:31;;;;;;;19.02;10.70;;;;;;;15.54;100.00;101555.19;5202787;28;20075;-69
2023/06/17 05:19:01;;;;;;;21.63;10.15;;;;;;;15.66;100.00;101548.38;5203953;28;20025;-69
2023/06/17 05:21:32;;;;;;;17.17;9.57;;;;;;;15.78;100.00;101549.59;5204776;28;20025;-69
2023/06/17 05:24:02;;;;;;;15.13;9.25;;;;;;;15.93;100.00;101543.38;5204238;28;20025;-70
2023/06/17 05:26:33;;;;;;;19.75;9.90;;;;;;;16.07;100.00;101539.00;5203675;28;20029;-70
2023/06/17 05:29:03;;;;;;;18.25;9.80;;;;;;;16.21;100.00;101541.69;5204339;28;20029;-70
2023/06/17 05:31:34;;;;;;;15.50;9.45;;;;;;;16.36;100.00;101543.56;5203986;28;20445;-70
2023/06/17 05:34:04;;;;;;;19.98;9.60;;;;;;;16.51;100.00;101549.81;5204334;28;20111;-70
2023/06/17 05:36:35;;;;;;;17.83;9.13;;;;;;;16.65;100.00;101548.97;5203561;28;20382;-70
2023/06/17 05:39:05;;;;;;;19.02;8.95;;;;;;;16.82;100.00;101555.88;5204340;28;20095;-70
2023/06/17 05:41:36;;;;;;;33.75;9.60;;;;;;;16.99;100.00;101563.78;5204346;28;20025;-69
2023/06/17 05:44:06;;;;;;;15.00;8.50;;;;;;;17.15;100.00;101555.41;5204265;28;20029;-70
2023/06/17 05:46:37;;;;;;;17.50;8.75;;;;;;;17.34;100.00;101562.06;5203587;28;20025;-70
2023/06/17 05:49:08;;;;;;;16.88;7.75;;;;;;;17.59;100.00;101557.09;5204107;28;20087;-70
2023/06/17 05:51:39;;;;;;;13.40;7.95;;;;;;;17.82;100.00;101548.75;5204360;28;20536;-70
2023/06/17 05:54:09;;;;;;;11.23;6.95;;;;;;;18.06;100.00;101555.59;5203118;28;20033;-70
2023/06/17 05:56:40;;;;;;;13.55;8.40;;;;;;;18.27;100.00;101551.97;5203360;28;20068;-70
2023/06/17 05:59:10;;;;;;;15.27;7.65;;;;;;;18.53;100.00;101556.75;5204139;28;20051;-70
2023/06/17 06:01:41;;;;;;;12.95;8.18;;;;;;;18.96;100.00;101561.94;5204030;28;20036;-70
2023/06/17 06:04:11;;;;;;;14.93;8.02;;;;;;;19.60;100.00;101570.47;5203930;28;20025;-70
2023/06/17 06:06:42;;;;;;;12.98;7.97;;;;;;;20.40;100.00;101571.25;5203327;28;20030;-70
2023/06/17 06:09:12;;;;;;;15.80;8.05;;;;;;;21.27;100.00;101573.63;5203573;28;20741;-70
2023/06/17 06:11:42;;;;;;;14.63;8.43;;;;;;;21.98;100.00;101565.94;5203256;28;20025;-70
2023/06/17 06:14:13;;;;;;;19.80;8.45;;;;;;;22.51;100.00;101571.97;5203947;28;20053;-70
2023/06/17 06:16:44;;;;;;;14.43;7.75;;;;;;;23.03;100.00;101567.75;5202943;28;20025;-70
2023/06/17 06:19:14;;;;;;;16.05;8.10;;;;;;;23.31;100.00;101575.38;5203678;28;20037;-71
2023/06/17 06:21:45;;;;;;;14.48;7.15;;;;;;;23.16;100.00;101559.38;5203208;28;20047;-71
2023/06/17 06:24:15;;;;;;;13.73;8.05;;;;;;;22.83;100.00;101562.50;5203705;28;20034;-70
2023/06/17 06:26:46;;;;;;;13.98;8.25;;;;;;;22.57;100.00;101557.38;5202823;28;20030;-71
2023/06/17 06:29:17;;;;;;;13.90;7.68;;;;;;;22.84;100.00;101556.00;5203655;28;20104;-70
2023/06/17 06:31:47;;;;;;;10.82;7.13;;;;;;;23.32;100.00;101555.13;5203398;28;20025;-71
2023/06/17 06:34:17;;;;;;;11.25;8.02;;;;;;;23.84;100.00;101563.59;5202115;28;20386;-71
2023/06/17 06:36:48;;;;;;;13.65;6.47;;;;;;;24.32;100.00;101561.69;5202625;28;20026;-71
2023/06/17 06:39:18;;;;;;;17.83;7.05;;;;;;;24.71;100.00;101563.66;5203570;28;20025;-71
2023/06/17 06:41:49;;;;;;;12.45;7.22;;;;;;;24.93;100.00;101561.06;5203351;28;20722;-71
2023/06/17 06:44:19;;;;;;;11.38;6.35;;;;;;;25.22;100.00;101564.69;5203370;28;20034;-71
2023/06/17 06:46:50;;;;;;;16.13;6.80;;;;;;;25.30;100.00;101564.28;5202307;28;20706;-71
2023/06/17 06:49:21;;;;;;;16.40;6.43;;;;;;;25.35;100.00;101558.03;5203253;28;20021;-71
2023/06/17 06:51:51;;;;;;;21.00;6.93;;;;;;;25.50;100.00;101555.59;5203398;28;20029;-71
2023/06/17 06:54:22;;;;;;;13.15;6.00;;;;;;;25.73;100.00;101554.56;5203090;28;20021;-71
2023/06/17 06:56:52;;;;;;;12.00;6.03;;;;;;;26.09;100.00;101555.97;5202396;28;20164;-71
2023/06/17 06:59:23;;;;;;;12.60;5.78;;;;;;;26.44;100.00;101549.34;5202907;28;20524;-71
2023/06/17 07:01:53;;;;;;;11.27;5.82;;;;;;;26.51;100.00;101561.00;5202961;28;20660;-71
2023/06/17 07:04:24;;;;;;;8.27;5.35;;;;;;;26.80;90.76;101549.78;5203134;28;20028;-71
2023/06/17 07:06:54;;;;;;;8.23;5.50;;;;;;;26.66;96.12;101552.13;5202567;28;20080;-71
2023/06/17 07:09:25;;;;;;;8.50;5.63;;;;;;;26.28;96.49;101551.03;5202389;28;20037;-71
2023/06/17 07:11:55;;;;;;;8.05;5.25;;;;;;;26.29;94.77;101549.94;5202408;28;20037;-71
2023/06/17 07:14:26;;;;;;;11.93;5.32;;;;;;;26.33;94.74;101553.00;5202637;28;20067;-71
2023/06/17 07:16:57;;;;;;;14.90;4.95;;;;;;;26.67;100.00;101552.94;5201827;28;20022;-71
2023/06/17 07:19:27;;;;;;;9.27;4.72;;;;;;;26.76;86.10;101556.91;5202895;28;20022;-71
2023/06/17 07:21:58;;;;;;;9.30;5.20;;;;;;;27.01;82.51;101551.69;5202173;28;20030;-71
2023/06/17 07:24:28;;;;;;;10.48;5.45;;;;;;;26.80;94.70;101553.34;5204971;28;20430;-71
2023/06/17 07:26:59;;;;;;;9.57;5.80;;;;;;;27.04;84.29;101561.34;5206180;28;20034;-71
2023/06/17 07:29:30;;;;;;;8.02;5.35;;;;;;;27.01;84.19;101556.34;5207037;28;20022;-71
2023/06/17 07:32:00;;;;;;;10.85;5.07;;;;;;;27.04;89.44;101562.16;5206832;28;20025;-71
2023/06/17 07:34:31;;;;;;;7.57;5.13;;;;;;;27.60;86.54;101561.91;5206598;28;20386;-71
2023/06/17 07:37:02;;;;;;;11.43;5.35;;;;;;;27.93;86.77;101563.56;5206164;28;20033;-71
2023/06/17 07:39:33;;;;;;;9.77;5.50;;;;;;;28.13;74.46;101577.50;5206791;28;20030;-71
2023/06/17 07:42:03;;;;;;;11.07;5.05;;;;;;;28.11;70.58;101563.16;5206835;28;20395;-71
2023/06/17 07:44:34;;;;;;;10.07;5.13;;;;;;;28.41;73.51;101567.19;5206874;28;20139;-71
2023/06/17 07:47:05;;;;;;;9.45;4.90;;;;;;;28.70;62.46;101569.53;5206040;28;20092;-71
2023/06/17 07:49:36;;;;;;;10.18;5.60;;;;;;;28.79;63.30;101574.28;5206627;28;20124;-71
2023/06/17 07:52:06;;;;;;;8.77;4.90;;;;;;;28.99;67.00;101568.00;5206788;28;20501;-71
2023/06/17 07:54:37;;;;;;;9.32;5.28;;;;;;;29.24;58.03;101569.19;5206377;28;20025;-71
2023/06/17 07:57:08;;;;;;;7.00;4.35;;;;;;;29.40;57.17;101562.56;5206012;28;20025;-71
2023/06/17 07:59:40;;;;;;;7.82;4.78;;;;;;;29.56;57.44;101569.78;5204869;28;20073;-71
2023/06/17 08:02:10;;;;;;;12.13;4.68;;;;;;;29.60;60.07;101559.81;5206228;28;20387;-72
2023/06/17 08:04:41;;;;;;;11.80;4.75;;;;;;;29.66;60.93;101563.41;5206186;28;20017;-72
2023/06/17 08:07:13;;;;;;;12.10;4.97;;;;;;;29.73;60.99;101555.69;5205600;28;20390;-72
2023/06/17 08:09:43;;;;;;;7.15;4.50;;;;;;;29.67;55.10;101559.53;5206355;28;20029;-71
2023/06/17 08:12:14;;;;;;;9.45;4.50;;;;;;;29.72;57.26;101567.00;5205803;28;20041;-72
2023/06/17 08:14:44;;;;;;;11.50;5.22;;;;;;;29.65;58.72;101557.06;5206290;28;20029;-72
2023/06/17 08:17:15;;;;;;;7.22;4.72;;;;;;;29.63;64.11;101551.00;5205378;28;20581;-71
2023/06/17 08:19:45;;;;;;;9.98;5.10;;;;;;;29.69;60.19;101543.53;5205987;28;20052;-71
2023/06/17 08:22:16;;;;;;;7.85;4.75;;;;;;;29.65;57.93;101543.25;5205739;28;20139;-71
2023/06/17 08:24:46;;;;;;;8.65;5.20;;;;;;;29.69;54.26;101545.47;5205848;28;20029;-72
2023/06/17 08:27:17;;;;;;;7.88;4.55;;;;;;;29.46;59.64;101542.09;5205018;28;20030;-72
2023/06/17 08:29:47;;;;;;;6.40;4.75;;;;;;;29.63;56.05;101548.22;5205461;28;20104;-72
2023/06/17 08:32:18;;;;;;;13.20;5.40;;;;;;;29.70;55.29;101545.19;5205648;28;20021;-72
2023/06/17 08:34:48;;;;;;;10.10;4.82;;;;;;;29.92;59.74;101550.38;5204799;28;20513;-72
2023/06/17 08:37:19;;;;;;;8.93;4.68;;;;;;;30.14;61.08;101548.19;5204774;28;20026;-72
2023/06/17 08:39:49;;;;;;;11.13;4.95;;;;;;;30.37;59.21;101537.59;5205381;28;20018;-72
2023/06/17 08:42:20;;;;;;;11.40;5.60;;;;;;;30.40;52.38;101537.84;5205508;28;20752;-72
2023/06/17 08:44:52;;;;;;;10.50;4.85;;;;;;;30.06;54.59;101545.13;5205327;28;20170;-72
2023/06/17 08:47:23;;;;;;;12.35;5.30;;;;;;;29.97;58.24;101544.03;5204281;28;20029;-72
2023/06/17 08:49:56;;;;;;;10.15;4.70;;;;;;;30.12;57.92;101536.56;5205132;28;20478;-72
2023/06/17 08:52:28;;;;;;;7.97;5.15;;;;;;;30.43;54.14;101531.75;5205183;28;20026;-72
2023/06/17 08:55:01;;;;;;;10.20;5.32;;;;;;;30.80;55.65;101535.22;5204387;28;20060;-72
2023/06/17 08:57:32;;;;;;;9.15;4.93;;;;;;;30.95;48.55;101530.41;5204630;28;20108;-72
2023/06/17 09:00:03;;;;;;;7.57;4.68;;;;;;;30.98;47.62;101519.84;5204731;28;20120;-72
2023/06/17 09:02:35;;;;;;;6.05;5.18;;;;;;;31.05;50.85;101520.38;5204717;28;20033;-72
2023/06/17 09:05:06;;;;;;;12.65;4.50;;;;;;;30.72;61.02;101527.50;5205164;28;20414;-72
2023/06/17 09:07:37;;;;;;;8.82;5.05;;;;;;;30.82;50.38;101531.03;5204118;28;20032;-72
2023/06/17 09:10:09;;;;;;;8.48;5.45;;;;;;;31.03;53.27;101530.94;5204836;28;20021;-72
2023/06/17 09:12:40;;;;;;;12.02;4.68;;;;;;;31.28;49.47;101529.94;5204380;28;20119;-72
2023/06/17 09:15:29;;;;;;;7.75;4.70;;;;;;;31.62;50.08;101533.50;5204755;28;20100;-72
2023/06/17 09:18:00;;;;;;;8.65;5.00;;;;;;;31.54;50.35;101533.34;5203845;28;20041;-72
2023/06/17 09:20:32;;;;;;;11.55;5.50;;;;;;;31.60;45.61;101532.16;5204485;28;20106;-72
2023/06/17 09:23:03;;;;;;;6.32;5.00;;;;;;;31.62;47.28;101530.75;5204166;28;20079;-72
2023/06/17 09:25:35;;;;;;;8.35;5.15;;;;;;;31.56;46.30;101531.91;5204264;28;20025;-72
2023/06/17 09:28:09;;;;;;;5.50;4.47;;;;;;;31.70;46.24;101544.00;5216754;28;20040;-72
2023/06/17 09:30:42;;;;;;;9.80;5.03;;;;;;;31.90;46.56;101533.84;5204492;28;20223;-72
2023/06/17 09:33:31;;;;;;;8.23;5.05;;;;;;;31.90;50.49;101542.19;5203743;28;20021;-72
2023/06/17 09:36:04;;;;;;;10.65;5.40;;;;;;;31.33;44.92;101532.69;5203842;28;20031;-72
2023/06/17 09:38:37;;;;;;;7.63;4.90;;;;;;;31.49;46.65;101530.63;5204149;28;20033;-72
2023/06/17 09:41:13;;;;;;;10.45;4.80;;;;;;;31.03;46.00;101528.97;5204694;28;20479;-72
2023/06/17 09:44:02;;;;;;;16.67;5.10;;;;;;;31.15;49.78;101517.53;5199049;28;20028;-72
2023/06/17 09:46:37;;;;;;;7.13;5.13;;;;;;;31.45;50.14;101527.59;5205845;28;20386;-72
2023/06/17 09:49:12;;;;;;;;;;;;;;;31.33;46.45;101521.59;5205086;28;20486;-72
2023/06/17 09:51:43;;;;;;;10.40;4.93;;;;;;;31.38;43.47;101521.56;5211311;28;19908;-73
2023/06/17 09:54:15;;;;;;;12.30;5.20;;;;;;;31.49;42.76;101513.97;5210467;28;20033;-72
2023/06/17 09:56:46;;;;;;;6.78;5.07;;;;;;;31.52;39.72;101516.97;5203402;28;20022;-72
2023/06/17 09:59:21;;;;;;;8.25;4.93;;;;;;;31.63;42.04;101521.34;5203708;28;20033;-72
2023/06/17 10:01:52;;;;;;;6.90;4.95;;;;;;;32.04;38.70;101520.94;5204015;28;20372;-72
2023/06/17 10:04:23;;;;;;;6.80;4.63;;;;;;;32.13;41.15;101516.41;5203587;28;20519;-72
2023/06/17 10:06:54;;;;;;;8.00;4.20;;;;;;;32.71;35.17;101518.19;5203174;28;20021;-71
2023/06/17 10:09:25;;;;;;;15.23;5.32;;;;;;;32.43;36.13;101517.16;5203684;28;20045;-72
2023/06/17 10:11:58;;;;;;;7.10;4.28;;;;;;;32.35;37.83;101506.69;5203476;28;20104;-72
2023/06/17 10:14:33;;;;;;;8.45;4.20;;;;;;;32.43;38.49;101506.06;5203387;28;20028;-72
2023/06/17 10:17:05;;;;;;;;;;;;;;;31.91;34.84;101516.91;5202777;28;20052;-71
2023/06/17 10:19:38;;;;;;;11.10;4.20;;;;;;;31.68;34.38;101506.59;5203467;28;19999;-72
2023/06/17 10:22:12;;;;;;;10.18;4.78;;;;;;;31.32;35.93;101500.50;5203182;28;20018;-72
2023/06/17 10:24:43;;;;;;;8.02;4.72;;;;;;;31.23;38.08;101499.44;5203489;28;20049;-71
2023/06/17 10:27:13;;;;;;;6.68;4.57;;;;;;;31.46;42.13;101498.72;5202500;28;20060;-72
2023/06/17 10:29:44;;;;;;;9.60;5.57;;;;;;;31.20;44.50;101500.88;5203010;28;20072;-71
2023/06/17 10:32:33;;;;;;;10.55;5.00;;;;;;;31.08;38.70;101492.94;5203385;28;20060;-72
2023/06/17 10:35:19;;;;;;;7.07;4.22;;;;;;;31.18;39.77;101495.63;5202546;28;20040;-71
2023/06/17 10:37:50;;;;;;;10.63;4.72;;;;;;;31.42;37.91;101497.66;5202331;28;20613;-72
2023/06/17 10:40:37;;;;;;;7.57;4.82;;;;;;;31.43;36.98;101491.03;5203461;28;20025;-72
2023/06/17 10:43:07;;;;;;;16.85;4.60;;;;;;;31.61;38.04;101492.22;5202889;28;20026;-71
2023/06/17 10:45:52;;;;;;;10.80;4.55;;;;;;;31.74;35.39;101487.94;5202951;28;20025;-72
2023/06/17 10:48:42;;;;;;;7.85;4.70;;;;;;;31.94;38.13;101485.81;5202351;28;20132;-72
2023/06/17 10:51:12;;;;;;;9.80;4.40;;;;;;;31.76;41.40;101483.75;5202896;28;20048;-72
2023/06/17 10:54:03;;;;;;;5.60;4.53;;;;;;;31.62;35.19;101477.22;5202918;28;20455;-72
2023/06/17 10:56:33;;;;;;;12.00;4.72;;;;;;;31.46;36.53;101479.31;5194428;28;20033;-72
2023/06/17 10:59:04;;;;;;;9.55;5.18;;;;;;;31.70;41.62;101482.16;5205353;28;20027;-72
2023/06/17 11:01:41;;;;;;;9.90;5.47;;;;;;;31.70;35.25;101471.88;5204922;28;20075;-72
2023/06/17 11:04:12;;;;;;;6.88;4.35;;;;;;;31.80;38.15;101468.16;5211203;28;20052;-72
2023/06/17 11:06:45;;;;;;;6.10;4.00;;;;;;;32.08;42.84;101468.44;5205243;28;20027;-72
2023/06/17 11:09:16;;;;;;;7.40;5.10;;;;;;;32.20;42.29;101466.91;5209554;28;20044;-72
2023/06/17 11:11:46;;;;;;;8.80;4.78;;;;;;;32.20;38.80;101464.13;5206516;28;20021;-72
2023/06/17 11:14:18;;;;;;;9.75;4.45;;;;;;;32.05;35.28;101467.09;5206308;28;20033;-72
2023/06/17 11:16:49;;;;;;;8.90;5.20;;;;;;;31.78;35.33;101470.44;5209286;28;20025;-72
2023/06/17 11:19:20;;;;;;;12.50;5.38;;;;;;;31.84;36.22;101463.72;5207048;28;20017;-72
2023/06/17 11:21:57;;;;;;;7.40;4.38;;;;;;;32.09;38.61;101461.78;5204934;28;20494;-72
2023/06/17 11:24:27;;;;;;;7.68;4.30;;;;;;;32.47;43.26;101454.34;5208714;28;20470;-72
2023/06/17 11:26:59;;;;;;;11.93;4.28;;;;;;;32.74;36.95;101448.16;5205610;28;20025;-72
2023/06/17 11:29:29;;;;;;;12.05;4.53;;;;;;;32.71;37.48;101440.41;5209142;28;20024;-72
2023/06/17 11:32:01;;;;;;;11.70;4.95;;;;;;;32.89;39.46;101438.75;5205571;28;20021;-72
2023/06/17 11:34:32;;;;;;;6.47;4.68;;;;;;;32.79;34.87;101431.41;5204446;28;20032;-72